Terminal Aerodrome Forecast
Issued by NWS

Home | Current Version | Previous Version | Text Only | Print | Product List | Glossary On
Versions: 1 2 3 4 5 6 7 8 9 10 11 12 13 14 15 16 17 18 19 20
078
FTUS46 KMTR 240541
TAFSFO
TAF
KSFO 240541Z 2406/2512 27025G30KT P6SM FEW008 SCT018 BKN180
     FM241000 27015G21KT P6SM FEW008 SCT018 BKN150
     FM241600 27015KT P6SM SCT020 BKN150
     FM242000 27015G23KT P6SM -RA OVC050
     FM250000 27015G23KT P6SM VCSH SCT040 OVC060
     FM250500 26018KT P6SM SCT025 OVC060=

USA.gov is the U.S. government's official web portal to all federal, state and local government web resources and services.